createdAt,value
2018-12-23T00:02:16.631Z,9.40
2018-12-23T00:09:40.797Z,9.60
2018-12-23T00:12:09.071Z,9.70
2018-12-23T00:14:37.253Z,9.70
2018-12-23T00:17:05.431Z,9.70
2018-12-23T00:19:33.655Z,9.80
2018-12-23T00:22:01.888Z,9.70
2018-12-23T00:24:30.194Z,9.70
2018-12-23T00:26:58.411Z,9.70
2018-12-23T00:29:26.578Z,9.60
2018-12-23T00:31:54.789Z,9.60
2018-12-23T00:34:23.022Z,9.70
2018-12-23T00:36:51.242Z,9.70
2018-12-23T00:39:20.267Z,9.80
2018-12-23T00:41:48.439Z,9.80
2018-12-23T00:44:16.723Z,9.80
2018-12-23T00:46:44.930Z,9.80
2018-12-23T00:49:13.192Z,9.90
2018-12-23T00:51:41.400Z,9.90
2018-12-23T00:54:09.623Z,9.80
2018-12-23T00:56:37.907Z,9.70
2018-12-23T00:59:06.133Z,9.30
2018-12-23T01:08:58.220Z,9.80
2018-12-23T01:11:26.524Z,9.80
2018-12-23T01:13:54.711Z,9.80
2018-12-23T01:16:23.195Z,10.00
2018-12-23T01:18:51.401Z,10.00
2018-12-23T01:23:54.234Z,10.20
2018-12-23T01:26:22.499Z,10.30
2018-12-23T01:28:50.725Z,10.20
2018-12-23T01:31:18.898Z,10.00
2018-12-23T01:33:47.082Z,10.10
2018-12-23T01:36:15.283Z,10.00
2018-12-23T01:38:43.496Z,10.00
2018-12-23T01:41:11.664Z,9.90
2018-12-23T01:43:39.843Z,10.00
2018-12-23T01:46:08.021Z,10.00
2018-12-23T01:48:36.281Z,10.10
2018-12-23T01:51:04.484Z,10.10
2018-12-23T01:53:32.708Z,10.20
2018-12-23T01:56:00.923Z,10.30
2018-12-23T01:58:29.195Z,10.50
2018-12-23T02:00:57.360Z,10.60
2018-12-23T02:03:25.603Z,11.30
2018-12-23T02:05:53.835Z,10.70
2018-12-23T02:08:22.039Z,10.80
2018-12-23T02:10:50.375Z,10.80
2018-12-23T02:15:46.598Z,11.00
2018-12-23T02:18:14.779Z,11.00
2018-12-23T02:20:43.039Z,11.00
2018-12-23T02:23:11.219Z,10.50
2018-12-23T02:25:39.411Z,10.20
2018-12-23T02:28:07.604Z,10.10
2018-12-23T02:30:35.839Z,9.80
2018-12-23T02:33:04.063Z,9.60
2018-12-23T02:35:32.246Z,9.50
2018-12-23T02:38:00.422Z,9.50
2018-12-23T02:40:28.625Z,9.50
2018-12-23T02:42:56.801Z,9.50
2018-12-23T02:45:24.970Z,9.40
2018-12-23T02:47:53.136Z,9.40
2018-12-23T02:50:21.381Z,9.20
2018-12-23T02:52:49.561Z,9.20
2018-12-23T02:55:17.846Z,9.30
2018-12-23T02:57:46.170Z,9.30
2018-12-23T03:00:14.418Z,9.50
2018-12-23T03:02:42.693Z,9.90
2018-12-23T03:05:10.876Z,9.40
2018-12-23T03:07:39.183Z,9.50
2018-12-23T03:10:07.624Z,10.00
2018-12-23T03:15:03.998Z,9.60
2018-12-23T03:17:32.439Z,9.60
2018-12-23T03:20:00.658Z,9.60
2018-12-23T03:22:28.828Z,9.60
2018-12-23T03:24:57.012Z,9.60
2018-12-23T03:27:25.298Z,9.70
2018-12-23T03:29:53.612Z,9.70
2018-12-23T03:32:21.796Z,9.70
2018-12-23T03:34:50.051Z,9.60
2018-12-23T03:37:18.264Z,9.60
2018-12-23T03:39:46.526Z,9.60
2018-12-23T03:42:14.766Z,9.70
2018-12-23T03:44:42.954Z,9.70
2018-12-23T03:47:11.149Z,9.70
2018-12-23T03:49:39.342Z,9.70
2018-12-23T03:52:07.511Z,9.70
2018-12-23T03:54:35.922Z,9.70
2018-12-23T03:57:04.079Z,9.70
2018-12-23T03:59:32.294Z,9.70
2018-12-23T04:02:00.446Z,9.70
2018-12-23T04:04:28.661Z,9.90
2018-12-23T04:06:56.964Z,9.80
2018-12-23T04:09:25.147Z,9.90
2018-12-23T04:16:49.245Z,9.80
2018-12-23T04:19:17.507Z,9.80
2018-12-23T04:21:45.689Z,9.80
2018-12-23T04:24:14.019Z,9.80
2018-12-23T04:26:42.239Z,9.80
2018-12-23T04:29:10.453Z,9.90
2018-12-23T04:31:38.624Z,9.80
2018-12-23T04:34:06.853Z,9.80
2018-12-23T04:36:35.063Z,9.70
2018-12-23T04:39:04.619Z,9.70
2018-12-23T04:41:32.808Z,9.80
2018-12-23T04:44:00.993Z,9.70
2018-12-23T04:46:29.187Z,9.70
2018-12-23T04:48:57.447Z,9.70
2018-12-23T04:51:25.641Z,9.70
2018-12-23T04:53:53.823Z,9.50
2018-12-23T04:56:22.069Z,9.50
2018-12-23T04:58:50.242Z,9.50
2018-12-23T05:01:18.430Z,9.40
2018-12-23T05:03:46.734Z,9.40
2018-12-23T05:06:14.911Z,9.40
2018-12-23T05:08:43.111Z,9.40
2018-12-23T05:11:11.434Z,9.40
2018-12-23T05:16:07.677Z,9.30
2018-12-23T05:18:35.855Z,9.40
2018-12-23T05:21:04.132Z,9.50
2018-12-23T05:26:00.280Z,9.40
2018-12-23T05:28:28.470Z,9.40
2018-12-23T05:30:56.741Z,9.40
2018-12-23T05:33:24.935Z,9.40
2018-12-23T05:35:54.200Z,9.40
2018-12-23T05:38:22.504Z,9.30
2018-12-23T05:40:51.511Z,9.20
2018-12-23T05:43:19.930Z,9.10
2018-12-23T05:45:48.148Z,9.10
2018-12-23T05:48:16.390Z,9.00
2018-12-23T05:50:44.562Z,9.00
2018-12-23T05:53:12.795Z,9.10
2018-12-23T05:55:40.055Z,9.10
2018-12-23T05:58:08.403Z,9.10
2018-12-23T06:00:36.635Z,9.10
2018-12-23T06:03:04.809Z,9.00
2018-12-23T06:05:33.134Z,9.70
2018-12-23T06:08:01.394Z,8.70
2018-12-23T06:10:29.623Z,9.10
2018-12-23T06:12:57.811Z,9.00
2018-12-23T06:17:54.061Z,9.00
2018-12-23T06:20:22.232Z,9.00
2018-12-23T06:22:50.538Z,9.10
2018-12-23T06:25:18.807Z,9.10
2018-12-23T06:27:46.983Z,9.20
2018-12-23T06:30:15.280Z,9.20
2018-12-23T06:32:43.489Z,9.10
2018-12-23T06:35:11.639Z,9.20
2018-12-23T06:37:39.860Z,9.20
2018-12-23T06:40:08.119Z,9.20
2018-12-23T06:42:36.339Z,9.30
2018-12-23T06:45:04.991Z,9.30
2018-12-23T06:47:33.185Z,9.40
2018-12-23T06:50:01.408Z,9.40
2018-12-23T06:52:29.596Z,9.40
2018-12-23T06:54:57.823Z,9.50
2018-12-23T06:57:26.128Z,9.40
2018-12-23T06:59:54.353Z,9.50
2018-12-23T07:02:22.633Z,9.60
2018-12-23T07:04:50.836Z,9.60
2018-12-23T07:07:19.121Z,9.50
2018-12-23T07:09:47.344Z,9.50
2018-12-23T07:12:15.558Z,9.60
2018-12-23T07:19:40.103Z,9.70
2018-12-23T07:22:08.374Z,9.80
2018-12-23T07:24:36.538Z,9.70
2018-12-23T07:27:04.723Z,9.70
2018-12-23T07:29:32.915Z,9.70
2018-12-23T07:32:01.308Z,9.70
2018-12-23T07:34:29.520Z,9.70
2018-12-23T07:36:57.707Z,9.70
2018-12-23T07:39:25.964Z,9.70
2018-12-23T07:41:54.340Z,9.70
2018-12-23T07:44:22.526Z,9.70
2018-12-23T07:46:50.764Z,9.80
2018-12-23T07:51:46.950Z,10.10
2018-12-23T07:54:15.194Z,9.80
2018-12-23T07:56:43.381Z,9.80
2018-12-23T07:59:11.554Z,9.80
2018-12-23T08:01:39.812Z,9.80
2018-12-23T08:04:08.025Z,9.90
2018-12-23T08:06:36.208Z,9.90
2018-12-23T08:09:05.802Z,9.90
2018-12-23T08:11:34.035Z,9.90
2018-12-23T08:14:02.221Z,9.90
2018-12-23T08:18:58.444Z,9.90
2018-12-23T08:21:26.720Z,9.90
2018-12-23T08:23:54.895Z,9.90
2018-12-23T08:26:23.075Z,9.80
2018-12-23T08:31:19.205Z,9.90
2018-12-23T08:33:47.430Z,9.90
2018-12-23T08:36:15.692Z,9.80
2018-12-23T08:38:43.944Z,9.90
2018-12-23T08:41:12.239Z,9.90
2018-12-23T08:46:08.498Z,9.90
2018-12-23T08:48:36.900Z,10.00
2018-12-23T08:51:05.064Z,10.10
2018-12-23T08:53:33.254Z,10.10
2018-12-23T08:56:01.491Z,10.20
2018-12-23T09:00:57.619Z,10.30
2018-12-23T09:03:25.863Z,10.20
2018-12-23T09:05:54.124Z,10.20
2018-12-23T09:08:22.364Z,10.00
2018-12-23T09:10:50.633Z,10.20
2018-12-23T09:13:18.928Z,10.00
2018-12-23T09:15:47.157Z,9.80
2018-12-23T09:18:19.355Z,9.90
2018-12-23T09:23:13.603Z,10.00
2018-12-23T09:25:41.857Z,10.00
2018-12-23T09:28:10.028Z,10.10
2018-12-23T09:30:38.209Z,10.10
2018-12-23T09:35:34.397Z,10.30
2018-12-23T09:38:02.603Z,10.30
2018-12-23T09:40:30.835Z,10.30
2018-12-23T09:42:59.058Z,10.20
2018-12-23T09:45:27.237Z,10.20
2018-12-23T09:50:23.403Z,10.30
2018-12-23T09:52:51.629Z,10.40
2018-12-23T09:55:19.851Z,10.50
2018-12-23T10:00:16.125Z,10.60
2018-12-23T10:02:44.325Z,10.60
2018-12-23T10:05:12.594Z,10.70
2018-12-23T10:07:40.887Z,10.60
2018-12-23T10:12:37.119Z,10.80
2018-12-23T10:15:05.878Z,10.90
2018-12-23T10:17:34.139Z,10.90
2018-12-23T10:24:58.657Z,11.00
2018-12-23T10:27:26.898Z,10.90
2018-12-23T10:29:55.191Z,11.00
2018-12-23T10:32:23.622Z,11.00
2018-12-23T10:39:48.042Z,11.10
2018-12-23T10:42:16.230Z,10.90
2018-12-23T10:44:44.556Z,10.90
2018-12-23T10:47:12.797Z,10.80
2018-12-23T10:49:41.040Z,10.70
2018-12-23T10:52:09.237Z,10.50
2018-12-23T10:54:37.424Z,10.60
2018-12-23T10:57:05.640Z,10.70
2018-12-23T10:59:33.907Z,10.60
2018-12-23T11:02:02.162Z,10.60
2018-12-23T11:04:30.418Z,10.80
2018-12-23T11:06:58.656Z,11.00
2018-12-23T11:09:26.894Z,10.90
2018-12-23T11:11:55.147Z,11.10
2018-12-23T11:14:23.398Z,11.20
2018-12-23T11:16:51.676Z,11.10
2018-12-23T11:19:19.964Z,11.30
2018-12-23T11:21:48.183Z,11.10
2018-12-23T11:26:44.407Z,11.20
2018-12-23T11:29:12.684Z,11.00
2018-12-23T11:31:40.931Z,11.10
2018-12-23T11:34:09.114Z,11.20
2018-12-23T11:36:37.399Z,11.20
2018-12-23T11:39:07.640Z,11.20
2018-12-23T11:41:35.889Z,11.10
2018-12-23T11:44:04.139Z,11.10
2018-12-23T11:46:32.468Z,10.80
2018-12-23T11:49:00.642Z,10.80
2018-12-23T11:51:28.866Z,10.90
2018-12-23T11:53:57.091Z,11.10
2018-12-23T11:56:25.342Z,11.20
2018-12-23T11:58:53.529Z,11.30
2018-12-23T12:01:21.811Z,11.40
2018-12-23T12:03:50.177Z,11.30
2018-12-23T12:06:18.516Z,11.00
2018-12-23T12:08:46.712Z,11.20
2018-12-23T12:11:16.027Z,11.30
2018-12-23T12:13:44.321Z,11.30
2018-12-23T12:23:42.493Z,11.00
2018-12-23T12:29:38.266Z,11.50
2018-12-23T12:32:26.521Z,11.30
2018-12-23T12:40:36.999Z,11.10
2018-12-23T12:43:25.263Z,10.90
2018-12-23T12:46:13.559Z,10.90
2018-12-23T12:49:01.872Z,10.90
2018-12-23T12:51:50.135Z,10.90
2018-12-23T13:03:17.228Z,11.20
2018-12-23T13:11:42.801Z,11.30
2018-12-23T13:14:31.073Z,11.20
2018-12-23T13:17:12.173Z,11.40
2018-12-23T13:19:52.862Z,11.30
2018-12-23T13:25:16.484Z,11.30
2018-12-23T13:27:57.413Z,11.20
2018-12-23T13:42:15.797Z,11.00
2018-12-23T13:48:11.690Z,11.00
2018-12-23T13:51:19.311Z,10.80
2018-12-23T13:54:27.065Z,10.90
2018-12-23T14:03:48.888Z,10.80
2018-12-23T14:06:56.576Z,10.80
2018-12-23T14:15:32.428Z,10.70
2018-12-23T14:18:01.566Z,10.60
2018-12-23T14:20:49.875Z,10.60
2018-12-23T14:23:38.497Z,10.60
2018-12-23T14:26:26.746Z,10.60
2018-12-23T14:32:02.832Z,10.50
2018-12-23T14:37:38.929Z,10.40
2018-12-23T14:40:27.236Z,10.30
2018-12-23T14:43:15.658Z,10.30
2018-12-23T14:48:58.440Z,10.20
2018-12-23T14:51:46.721Z,10.20
2018-12-23T14:54:35.057Z,10.10
2018-12-23T14:57:23.348Z,10.10
2018-12-23T15:00:11.706Z,10.10
2018-12-23T15:08:35.909Z,10.20
2018-12-23T15:11:24.224Z,10.00
2018-12-23T15:14:12.479Z,10.00
2018-12-23T15:16:53.553Z,10.00
2018-12-23T15:19:34.488Z,10.00
2018-12-23T15:22:15.786Z,10.00
2018-12-23T15:24:56.572Z,10.00
2018-12-23T15:27:37.398Z,10.00
2018-12-23T15:30:18.774Z,10.00
2018-12-23T15:32:59.816Z,10.00
2018-12-23T15:35:40.814Z,10.00
2018-12-23T15:41:18.285Z,9.90
2018-12-23T15:44:06.543Z,9.90
2018-12-23T15:46:54.852Z,9.90
2018-12-23T15:49:43.097Z,9.80
2018-12-23T15:52:31.390Z,9.80
2018-12-23T15:55:19.651Z,9.80
2018-12-23T15:58:09.810Z,9.80
2018-12-23T16:00:57.932Z,9.80
2018-12-23T16:06:34.221Z,9.70
2018-12-23T16:09:22.498Z,9.80
2018-12-23T16:12:10.772Z,9.80
2018-12-23T16:14:59.089Z,9.70
2018-12-23T16:17:47.362Z,9.70
2018-12-23T16:20:36.689Z,9.60
2018-12-23T16:23:06.664Z,9.60
2018-12-23T16:29:02.360Z,9.60
2018-12-23T16:31:50.692Z,9.60
2018-12-23T16:34:39.062Z,9.60
2018-12-23T16:37:27.352Z,9.70
2018-12-23T16:43:03.545Z,9.70
2018-12-23T16:45:51.841Z,9.60
2018-12-23T16:48:40.221Z,9.60
2018-12-23T16:51:28.482Z,9.50
2018-12-23T16:54:16.858Z,9.50
2018-12-23T16:57:05.119Z,9.50
2018-12-23T16:59:53.489Z,9.50
2018-12-23T17:02:41.890Z,9.50
2018-12-23T17:05:30.244Z,9.40
2018-12-23T17:08:18.492Z,9.40
2018-12-23T17:13:54.558Z,9.50
2018-12-23T17:16:36.082Z,9.40
2018-12-23T17:19:17.180Z,9.40
2018-12-23T17:21:46.308Z,9.40
2018-12-23T17:24:34.536Z,9.40
2018-12-23T17:27:22.802Z,9.50
2018-12-23T17:30:11.119Z,9.40
2018-12-23T17:32:59.403Z,9.40
2018-12-23T17:35:47.677Z,9.50
2018-12-23T17:46:59.321Z,9.50
2018-12-23T17:49:47.574Z,9.60
2018-12-23T17:55:43.232Z,9.50
2018-12-23T17:58:31.477Z,9.70
2018-12-23T18:01:19.918Z,9.80
2018-12-23T18:04:08.194Z,9.70
2018-12-23T18:07:03.763Z,9.80
2018-12-23T18:09:46.615Z,9.90
2018-12-23T18:12:35.151Z,9.80
2018-12-23T18:15:04.423Z,9.80
2018-12-23T18:17:45.069Z,9.80
2018-12-23T18:20:26.046Z,9.90
2018-12-23T18:25:49.309Z,10.10
2018-12-23T18:28:18.412Z,10.10
2018-12-23T18:31:06.714Z,9.80
2018-12-23T18:33:55.019Z,10.10
2018-12-23T18:42:18.869Z,10.40
2018-12-23T18:45:07.471Z,10.20
2018-12-23T18:47:56.124Z,10.30
2018-12-23T18:50:44.732Z,10.10
2018-12-23T18:53:33.353Z,10.20
2018-12-23T18:56:25.871Z,10.00
2018-12-23T19:05:00.956Z,9.90
2018-12-23T19:07:50.840Z,10.00
2018-12-23T19:10:58.293Z,10.00
2018-12-23T19:14:05.792Z,10.20
2018-12-23T19:16:46.830Z,10.30
2018-12-23T19:19:27.930Z,10.30
2018-12-23T19:22:09.067Z,10.30
2018-12-23T19:24:49.966Z,10.40
2018-12-23T19:27:31.142Z,10.40
2018-12-23T19:33:25.388Z,10.50
2018-12-23T19:39:04.388Z,10.70
2018-12-23T19:41:45.379Z,10.60
2018-12-23T19:44:26.467Z,10.70
2018-12-23T19:47:07.441Z,10.60
2018-12-23T19:59:02.159Z,10.70
2018-12-23T20:01:43.267Z,10.80
2018-12-23T20:04:24.425Z,10.90
2018-12-23T20:10:03.223Z,10.80
2018-12-23T20:12:44.015Z,10.80
2018-12-23T20:15:25.255Z,10.90
2018-12-23T20:18:06.817Z,10.90
2018-12-23T20:27:25.904Z,11.10
2018-12-23T20:30:33.351Z,11.10
2018-12-23T20:33:40.828Z,11.10
2018-12-23T20:36:35.728Z,11.10
2018-12-23T20:42:45.136Z,11.20
2018-12-23T20:45:52.590Z,11.20
2018-12-23T20:49:00.036Z,11.20
2018-12-23T20:52:07.524Z,11.10
2018-12-23T20:58:02.770Z,11.10
2018-12-23T21:01:10.202Z,11.10
2018-12-23T21:04:17.650Z,11.10
2018-12-23T21:07:25.125Z,11.20
2018-12-23T21:10:32.558Z,11.20
2018-12-23T21:13:40.042Z,11.20
2018-12-23T21:16:21.484Z,11.30
2018-12-23T21:19:18.961Z,11.30
2018-12-23T21:22:26.507Z,11.20
2018-12-23T21:28:22.019Z,11.40
2018-12-23T21:34:11.184Z,11.30
2018-12-23T21:37:18.961Z,11.30
2018-12-23T21:40:26.405Z,11.50
2018-12-23T21:43:33.834Z,11.50
2018-12-23T21:49:29.175Z,11.50
2018-12-23T21:52:39.838Z,11.40
2018-12-23T21:58:33.570Z,11.40
2018-12-23T22:01:41.070Z,11.40
2018-12-23T22:07:36.341Z,11.40
2018-12-23T22:10:29.591Z,11.40
2018-12-23T22:13:40.115Z,11.40
2018-12-23T22:16:21.505Z,11.50
2018-12-23T22:22:15.570Z,11.50
2018-12-23T22:24:56.829Z,11.40
2018-12-23T22:30:36.727Z,11.30
2018-12-23T22:36:30.485Z,11.40
2018-12-23T22:42:24.418Z,11.40
2018-12-23T22:45:05.192Z,11.50
2018-12-23T22:47:34.663Z,11.60
2018-12-23T22:50:23.143Z,11.50
2018-12-23T22:53:11.718Z,11.60
2018-12-23T22:56:00.344Z,11.60
2018-12-23T22:58:48.914Z,11.60
2018-12-23T23:01:40.069Z,11.60
2018-12-23T23:04:27.752Z,11.70
2018-12-23T23:07:16.405Z,11.80
2018-12-23T23:10:04.987Z,11.80
2018-12-23T23:12:34.168Z,11.90
2018-12-23T23:15:22.776Z,11.90
2018-12-23T23:18:11.106Z,11.90
2018-12-23T23:20:59.506Z,11.90
2018-12-23T23:23:48.053Z,12.00
2018-12-23T23:26:36.521Z,11.90
2018-12-23T23:29:24.833Z,12.00
2018-12-23T23:32:13.107Z,12.10
2018-12-23T23:35:01.474Z,12.10
2018-12-23T23:43:25.501Z,12.20
2018-12-23T23:46:13.812Z,12.10
2018-12-23T23:49:02.128Z,12.20
2018-12-23T23:54:38.541Z,12.20
2018-12-23T23:57:27.072Z,12.30
